Time;durP1;ratioP1;P1;durP2;ratioP2;P2;SDS_P1;SDS_P2;PMS_P1;PMS_P2;Temp;Humidity;BMP_temperature;BMP_pressure;BME280_temperature;BME280_humidity;BME280_pressure;Samples;Min_cycle;Max_cycle;Signal;HPM_P1;HPM_P2
2023/06/29 00:01:22;;;;;;;4.50;3.50;;;;;;;13.41;76.10;94926.16;5068947;28;20112;-72
2023/06/29 00:03:48;;;;;;;3.72;2.97;;;;;;;13.51;76.17;94938.34;5051918;28;20035;-72
2023/06/29 00:06:13;;;;;;;5.65;3.38;;;;;;;13.49;76.36;94933.28;5069459;28;20029;-72
2023/06/29 00:08:40;;;;;;;5.90;3.55;;;;;;;13.34;76.28;94927.69;5051217;28;20032;-72
2023/06/29 00:11:07;;;;;;;5.38;3.50;;;;;;;13.28;76.96;94925.66;5016440;28;20029;-72
2023/06/29 00:13:33;;;;;;;4.55;3.42;;;;;;;13.30;76.39;94931.56;5066509;28;20111;-72
2023/06/29 00:15:58;;;;;;;5.78;3.47;;;;;;;13.30;76.59;94939.38;5052255;28;20036;-72
2023/06/29 00:18:27;;;;;;;5.07;3.40;;;;;;;13.19;76.21;94929.06;5067649;28;20036;-72
2023/06/29 00:20:54;;;;;;;4.55;3.30;;;;;;;13.09;76.43;94929.09;5069495;28;20063;-72
2023/06/29 00:23:19;;;;;;;4.28;3.20;;;;;;;13.02;76.21;94906.31;5040027;28;20043;-72
2023/06/29 00:25:47;;;;;;;4.68;3.45;;;;;;;13.11;76.06;94923.72;5041474;28;20037;-72
2023/06/29 00:28:12;;;;;;;4.05;3.15;;;;;;;13.00;76.05;94911.66;5049400;28;20483;-72
2023/06/29 00:30:38;;;;;;;5.32;3.22;;;;;;;12.96;76.14;94905.91;5059605;28;20040;-73
2023/06/29 00:33:03;;;;;;;5.03;3.30;;;;;;;13.06;76.00;94911.09;5052648;28;20552;-72
2023/06/29 00:35:29;;;;;;;4.15;2.85;;;;;;;12.97;74.83;94891.91;5041572;28;20062;-72
2023/06/29 00:37:54;;;;;;;3.65;2.67;;;;;;;12.95;74.93;94908.66;5068805;28;20060;-72
2023/06/29 00:40:20;;;;;;;3.97;3.00;;;;;;;12.91;75.72;94897.69;5069160;28;20132;-72
2023/06/29 00:42:45;;;;;;;4.25;2.85;;;;;;;13.02;76.39;94908.94;5068803;28;20068;-73
2023/06/29 00:45:10;;;;;;;3.97;3.00;;;;;;;13.14;75.95;94926.88;5067920;28;20083;-72
2023/06/29 00:47:36;;;;;;;5.22;3.05;;;;;;;13.15;76.36;94922.50;5069065;28;20052;-73
2023/06/29 00:50:01;;;;;;;4.20;3.05;;;;;;;13.21;77.36;94916.72;5052228;28;20032;-73
2023/06/29 00:52:27;;;;;;;4.55;3.10;;;;;;;13.36;78.13;94928.38;5068231;28;20025;-73
2023/06/29 00:54:53;;;;;;;6.00;3.53;;;;;;;13.13;78.16;94927.84;5067924;28;20059;-72
2023/06/29 00:57:19;;;;;;;6.28;3.47;;;;;;;12.91;78.67;94912.50;5068785;28;20460;-72
2023/06/29 00:59:45;;;;;;;3.60;2.90;;;;;;;13.08;77.51;94924.00;5068432;28;20032;-73
2023/06/29 01:02:10;;;;;;;4.18;3.35;;;;;;;13.06;78.75;94925.94;5050843;28;20205;-73
2023/06/29 01:04:37;;;;;;;4.30;3.53;;;;;;;13.02;78.97;94921.97;5052198;28;20037;-73
2023/06/29 01:07:41;;;;;;;4.47;3.38;;;;;;;13.03;78.75;94931.44;5035570;28;20422;-73
2023/06/29 01:10:08;;;;;;;4.32;3.70;;;;;;;12.97;79.89;94938.03;5010706;28;20128;-73
2023/06/29 01:12:33;;;;;;;4.20;3.33;;;;;;;12.98;79.66;94937.03;5022661;28;20036;-73
2023/06/29 01:14:59;;;;;;;6.07;3.38;;;;;;;12.90;79.91;94934.34;5052661;28;20399;-73
2023/06/29 01:17:26;;;;;;;6.85;3.83;;;;;;;13.07;80.11;94922.38;5054403;28;20426;-72
2023/06/29 01:19:51;;;;;;;7.57;3.92;;;;;;;13.10;79.79;94922.09;5054217;28;20189;-73
2023/06/29 01:22:36;;;;;;;5.18;4.13;;;;;;;13.15;80.24;94935.53;5038880;28;20470;-72
2023/06/29 01:25:02;;;;;;;5.70;4.13;;;;;;;13.07;80.42;94927.59;5068019;28;20055;-73
2023/06/29 01:27:27;;;;;;;6.03;4.03;;;;;;;13.07;80.41;94923.19;5055127;28;20058;-73
2023/06/29 01:29:55;;;;;;;4.70;4.03;;;;;;;13.05;80.47;94919.09;5070743;28;20028;-73
2023/06/29 01:32:28;;;;;;;7.00;3.90;;;;;;;13.24;80.62;94932.09;5055740;28;20464;-73
2023/06/29 01:34:54;;;;;;;6.32;4.20;;;;;;;13.11;80.73;94923.72;5051124;28;20048;-73
2023/06/29 01:37:21;;;;;;;4.90;4.00;;;;;;;13.01;80.49;94894.22;5041980;28;20051;-73
2023/06/29 01:39:56;;;;;;;7.95;4.53;;;;;;;13.13;80.64;94911.38;5054197;28;20502;-73
2023/06/29 01:42:21;;;;;;;6.35;4.30;;;;;;;13.07;80.38;94912.75;5048470;28;20125;-73
2023/06/29 01:44:47;;;;;;;5.72;4.20;;;;;;;13.20;80.72;94933.31;5071941;28;20040;-72
2023/06/29 01:47:13;;;;;;;6.20;4.07;;;;;;;13.28;80.68;94919.59;5053867;28;20028;-73
2023/06/29 01:49:38;;;;;;;7.65;4.22;;;;;;;12.96;80.81;94873.81;5038131;28;20078;-73
2023/06/29 01:52:04;;;;;;;7.28;4.20;;;;;;;13.14;80.90;94923.44;5051161;28;20479;-73
2023/06/29 01:54:30;;;;;;;6.75;4.40;;;;;;;13.09;81.02;94916.06;5051735;28;20392;-72
2023/06/29 01:56:55;;;;;;;6.43;4.55;;;;;;;13.14;80.60;94926.06;5041657;28;20474;-73
2023/06/29 01:59:21;;;;;;;5.60;4.55;;;;;;;13.10;80.61;94917.69;5071693;28;20028;-73
2023/06/29 02:01:46;;;;;;;5.28;4.18;;;;;;;12.87;80.61;94872.88;5054453;28;20094;-72
2023/06/29 02:04:12;;;;;;;5.78;4.65;;;;;;;13.11;80.22;94923.72;5071850;28;20507;-73
2023/06/29 02:06:37;;;;;;;5.68;4.28;;;;;;;13.10;80.44;94922.09;5070119;28;20028;-73
2023/06/29 02:09:03;;;;;;;7.90;4.80;;;;;;;13.06;80.52;94937.19;5050654;28;20431;-72
2023/06/29 02:11:28;;;;;;;5.78;4.25;;;;;;;13.10;80.13;94932.53;5051307;28;20112;-73
2023/06/29 02:13:54;;;;;;;5.93;4.53;;;;;;;13.17;79.90;94931.00;5053091;28;20048;-73
2023/06/29 02:16:19;;;;;;;5.53;4.30;;;;;;;13.06;79.56;94907.69;5069812;28;20036;-73
2023/06/29 02:18:45;;;;;;;7.28;4.82;;;;;;;13.00;79.56;94935.13;5054922;28;20028;-73
2023/06/29 02:21:10;;;;;;;6.88;4.97;;;;;;;12.75;80.05;94902.63;5047697;28;20056;-73
2023/06/29 02:23:36;;;;;;;6.10;5.22;;;;;;;12.81;80.10;94907.28;5054372;28;20496;-73
2023/06/29 02:26:01;;;;;;;6.72;5.20;;;;;;;12.79;80.34;94927.47;5070672;28;20482;-73
2023/06/29 02:28:27;;;;;;;6.28;5.00;;;;;;;12.77;80.31;94913.75;5070586;28;20024;-73
2023/06/29 02:30:52;;;;;;;6.10;4.55;;;;;;;12.73;80.29;94922.78;5071725;28;20029;-73
2023/06/29 02:33:17;;;;;;;7.10;5.30;;;;;;;12.70;80.36;94920.47;5053327;28;20032;-73
2023/06/29 02:35:43;;;;;;;7.07;5.10;;;;;;;12.80;79.70;94923.91;5071356;28;20032;-73
2023/06/29 02:38:08;;;;;;;8.07;5.63;;;;;;;12.72;79.92;94932.41;5033312;28;20503;-72
2023/06/29 02:40:33;;;;;;;8.27;5.13;;;;;;;12.53;79.53;94903.72;5067469;28;20029;-73
2023/06/29 02:42:59;;;;;;;6.13;4.90;;;;;;;12.72;79.50;94914.16;5048918;28;20036;-72
2023/06/29 02:45:24;;;;;;;7.30;5.65;;;;;;;12.58;79.85;94927.59;5034055;28;20032;-72
2023/06/29 02:47:50;;;;;;;6.70;5.60;;;;;;;12.47;79.99;94923.34;5065142;28;20032;-72
2023/06/29 02:50:15;;;;;;;7.05;5.78;;;;;;;12.39;80.26;94920.56;5070453;28;20047;-72
2023/06/29 02:52:41;;;;;;;6.75;5.82;;;;;;;12.34;80.72;94929.75;5048667;28;20457;-73
2023/06/29 02:55:06;;;;;;;7.32;5.75;;;;;;;12.27;80.75;94925.09;5038831;28;20029;-72
2023/06/29 02:57:32;;;;;;;6.53;5.43;;;;;;;12.11;80.67;94883.13;5057753;28;20035;-72
2023/06/29 02:59:57;;;;;;;8.38;6.10;;;;;;;12.43;80.35;94928.97;5069068;28;20043;-72
2023/06/29 03:02:22;;;;;;;8.13;6.22;;;;;;;12.28;80.62;94925.91;5069739;28;20035;-72
2023/06/29 03:04:48;;;;;;;8.20;5.97;;;;;;;12.30;80.46;94934.41;5071595;28;20410;-72
2023/06/29 03:07:13;;;;;;;7.18;6.00;;;;;;;12.30;80.65;94939.63;5048263;28;20048;-72
2023/06/29 03:09:39;;;;;;;8.07;5.85;;;;;;;12.29;80.53;94933.59;5067673;28;20037;-72
2023/06/29 03:12:05;;;;;;;6.40;5.50;;;;;;;12.37;80.25;94943.34;5069813;28;20028;-73
2023/06/29 03:14:30;;;;;;;7.63;5.85;;;;;;;12.20;80.57;94920.53;5070160;28;20495;-73
2023/06/29 03:16:55;;;;;;;7.18;5.93;;;;;;;12.00;81.35;94907.47;5032831;28;20494;-73
2023/06/29 03:19:21;;;;;;;9.23;5.90;;;;;;;12.26;81.70;94951.28;5066110;28;20044;-72
2023/06/29 03:21:46;;;;;;;7.97;6.40;;;;;;;12.34;81.97;94950.59;5069989;28;20028;-73
2023/06/29 03:24:12;;;;;;;8.13;6.43;;;;;;;12.35;81.87;94947.88;5069314;28;20037;-73
2023/06/29 03:26:37;;;;;;;8.45;6.43;;;;;;;12.20;81.83;94924.00;5070985;28;20055;-73
2023/06/29 03:29:02;;;;;;;10.95;6.03;;;;;;;12.42;82.02;94948.97;5068899;28;20555;-72
2023/06/29 03:31:28;;;;;;;7.95;6.15;;;;;;;12.40;82.18;94945.69;5069449;28;20509;-72
2023/06/29 03:33:53;;;;;;;9.05;6.70;;;;;;;12.56;82.01;94947.75;5071004;28;20037;-72
2023/06/29 03:36:19;;;;;;;9.27;6.40;;;;;;;12.84;81.62;94948.75;5068071;28;20086;-72
2023/06/29 03:38:44;;;;;;;10.13;6.75;;;;;;;12.94;81.47;94959.97;5036564;28;20044;-73
2023/06/29 03:41:10;;;;;;;8.02;6.55;;;;;;;12.60;81.25;94901.41;5052700;28;20411;-72
2023/06/29 03:43:35;;;;;;;9.05;6.45;;;;;;;12.95;81.02;94942.53;5069429;28;20062;-73
2023/06/29 03:46:01;;;;;;;6.70;5.70;;;;;;;12.95;81.19;94935.56;5068794;28;20460;-72
2023/06/29 03:48:27;;;;;;;8.40;6.25;;;;;;;13.21;80.80;94961.06;5070979;28;20497;-72
2023/06/29 03:50:56;;;;;;;7.55;6.20;;;;;;;13.28;80.85;94954.34;5052635;28;20029;-72
2023/06/29 03:53:22;;;;;;;7.60;5.72;;;;;;;13.28;80.49;94961.34;5053325;28;20055;-73
2023/06/29 03:55:48;;;;;;;8.98;7.05;;;;;;;13.42;79.06;94953.06;5047636;28;20487;-72
2023/06/29 03:58:14;;;;;;;7.80;6.55;;;;;;;13.40;77.91;94937.59;5053110;28;20029;-72
2023/06/29 04:00:39;;;;;;;7.63;6.65;;;;;;;13.65;78.37;94958.81;5051516;28;20134;-73
2023/06/29 04:03:05;;;;;;;7.30;6.50;;;;;;;13.91;77.24;94958.16;5070376;28;20036;-73
2023/06/29 04:05:30;;;;;;;7.60;6.35;;;;;;;13.80;77.49;94962.59;5069541;28;20109;-73
2023/06/29 04:07:56;;;;;;;7.13;6.07;;;;;;;13.91;76.84;94960.78;5067907;28;20037;-73
2023/06/29 04:10:21;;;;;;;7.95;6.60;;;;;;;14.23;74.25;94961.16;5044448;28;20032;-72
2023/06/29 04:12:46;;;;;;;8.85;6.72;;;;;;;15.19;73.99;94960.66;5050450;28;20036;-71
2023/06/29 04:15:12;;;;;;;7.50;6.57;;;;;;;15.77;71.16;94954.88;5068511;28;20016;-72
2023/06/29 04:17:37;;;;;;;7.72;6.50;;;;;;;16.28;68.92;94963.59;5065504;28;20402;-73
2023/06/29 04:20:03;;;;;;;7.57;6.05;;;;;;;15.85;67.96;94961.91;5070155;28;20040;-73
2023/06/29 04:22:29;;;;;;;8.95;6.65;;;;;;;15.98;66.67;94962.31;5062528;28;20031;-73
2023/06/29 04:24:54;;;;;;;6.45;5.78;;;;;;;16.06;68.22;94964.97;5059986;28;20507;-73
2023/06/29 04:27:20;;;;;;;7.32;6.60;;;;;;;15.59;68.40;94956.69;5051173;28;20399;-72
2023/06/29 04:29:45;;;;;;;6.97;6.10;;;;;;;15.38;70.67;94978.78;5069457;28;20029;-73
2023/06/29 04:32:10;;;;;;;8.23;7.00;;;;;;;15.36;70.75;94956.38;5048007;28;20037;-73
2023/06/29 04:34:36;;;;;;;8.05;6.65;;;;;;;15.20;71.06;94952.63;5034516;28;20033;-73
2023/06/29 04:37:02;;;;;;;7.95;7.15;;;;;;;15.20;71.19;94970.94;5047725;28;20107;-73
2023/06/29 04:39:27;;;;;;;7.88;7.07;;;;;;;15.14;71.17;94955.88;5060088;28;20041;-73
2023/06/29 04:42:01;;;;;;;8.50;7.65;;;;;;;15.21;72.02;94969.19;5047110;28;20491;-72
2023/06/29 04:44:32;;;;;;;8.90;8.00;;;;;;;15.06;72.06;94961.03;5058584;28;20032;-73
2023/06/29 04:47:00;;;;;;;8.15;7.22;;;;;;;15.23;72.47;94972.44;5045682;28;20033;-73
2023/06/29 04:49:31;;;;;;;8.48;7.68;;;;;;;14.82;73.31;94938.13;5056194;28;20134;-73
2023/06/29 04:51:59;;;;;;;10.23;8.15;;;;;;;15.20;70.66;94973.56;5052502;28;20043;-72
2023/06/29 04:54:25;;;;;;;8.43;7.63;;;;;;;15.39;70.18;94971.75;5052552;28;20483;-73
2023/06/29 04:56:50;;;;;;;10.73;7.68;;;;;;;15.35;69.61;94981.72;5070478;28;20048;-73
2023/06/29 04:59:16;;;;;;;9.02;8.13;;;;;;;15.22;69.43;94962.97;5046842;28;20510;-73
2023/06/29 05:01:41;;;;;;;9.60;7.60;;;;;;;15.48;68.56;94976.06;5052178;28;20040;-73
2023/06/29 05:04:07;;;;;;;9.73;8.15;;;;;;;15.64;68.34;94976.19;5062916;28;20040;-73
2023/06/29 05:06:32;;;;;;;9.07;7.68;;;;;;;15.82;67.71;94981.41;5053355;28;20033;-73
2023/06/29 05:08:57;;;;;;;8.85;7.95;;;;;;;15.68;67.02;94981.09;5065072;28;20565;-73
2023/06/29 05:11:23;;;;;;;8.88;7.80;;;;;;;15.79;67.35;94973.03;5050180;28;20044;-73
2023/06/29 05:13:48;;;;;;;9.70;7.95;;;;;;;16.20;66.51;94988.97;5067109;28;20122;-73
2023/06/29 05:16:14;;;;;;;10.48;7.88;;;;;;;16.31;65.61;94972.94;5051308;28;20415;-79
2023/06/29 05:18:40;;;;;;;9.75;7.70;;;;;;;16.55;65.40;94987.94;5067007;28;20025;-73
2023/06/29 05:21:05;;;;;;;9.48;7.38;;;;;;;16.70;65.65;94972.41;5053958;28;20029;-73
2023/06/29 05:23:31;;;;;;;9.50;7.40;;;;;;;16.89;65.33;94980.03;5071253;28;20070;-73
2023/06/29 05:25:56;;;;;;;9.43;8.02;;;;;;;16.78;62.93;94977.72;5071975;28;20047;-73
2023/06/29 05:28:21;;;;;;;8.35;7.18;;;;;;;16.88;63.29;94969.69;5071490;28;20025;-73
2023/06/29 05:30:47;;;;;;;8.05;7.22;;;;;;;17.11;63.29;94972.50;5068564;28;20033;-73
2023/06/29 05:33:12;;;;;;;11.57;8.20;;;;;;;16.95;63.53;94997.75;5036177;28;20106;-73
2023/06/29 05:35:38;;;;;;;8.95;7.85;;;;;;;16.73;64.11;94995.69;5053998;28;20035;-73
2023/06/29 05:38:03;;;;;;;8.60;7.70;;;;;;;16.75;62.70;94997.19;5071509;28;20048;-73
2023/06/29 05:40:29;;;;;;;8.95;7.95;;;;;;;16.94;65.36;94992.66;5071512;28;20055;-73
2023/06/29 05:42:54;;;;;;;9.85;8.60;;;;;;;17.01;64.87;94990.22;5072006;28;20039;-73
2023/06/29 05:45:20;;;;;;;11.40;8.30;;;;;;;16.87;64.77;94986.41;5071146;28;20086;-73
2023/06/29 05:47:45;;;;;;;8.85;8.00;;;;;;;16.90;64.47;94979.03;5073286;28;20040;-73
2023/06/29 05:50:10;;;;;;;12.88;7.90;;;;;;;17.04;63.26;94979.38;5054990;28;20036;-73
2023/06/29 05:52:37;;;;;;;9.30;7.68;;;;;;;17.08;63.04;94999.09;5070952;28;20430;-73
2023/06/29 05:55:03;;;;;;;8.82;7.93;;;;;;;17.03;61.51;94988.25;5072596;28;20049;-72
2023/06/29 05:57:28;;;;;;;11.23;7.60;;;;;;;17.25;60.70;95003.34;5038478;28;20040;-73
2023/06/29 05:59:54;;;;;;;9.85;8.27;;;;;;;17.48;63.90;94986.94;5054998;28;20025;-73
2023/06/29 06:02:20;;;;;;;8.65;7.72;;;;;;;17.32;61.40;94983.31;5070641;28;20056;-73
2023/06/29 06:04:45;;;;;;;9.20;7.47;;;;;;;17.41;61.87;94995.50;5071702;28;20533;-73
2023/06/29 06:07:13;;;;;;;9.20;7.38;;;;;;;17.20;61.04;94985.47;5072835;28;20025;-73
2023/06/29 06:09:39;;;;;;;8.45;7.55;;;;;;;17.38;60.84;94982.69;5071553;28;20494;-73
2023/06/29 06:12:05;;;;;;;8.27;7.47;;;;;;;17.72;65.11;94992.19;5054578;28;20091;-73
2023/06/29 06:14:31;;;;;;;8.52;7.63;;;;;;;17.62;61.90;94989.72;5071559;28;20113;-75
2023/06/29 06:16:56;;;;;;;8.60;7.70;;;;;;;17.48;64.53;94989.56;5070484;28;20040;-73
2023/06/29 06:19:21;;;;;;;9.98;8.40;;;;;;;17.49;63.38;94994.63;5070736;28;20033;-73
2023/06/29 06:21:47;;;;;;;9.93;8.80;;;;;;;17.25;60.94;94977.09;5068051;28;20039;-73
2023/06/29 06:24:12;;;;;;;8.98;8.00;;;;;;;17.30;61.72;94984.47;5051955;28;20029;-73
2023/06/29 06:26:38;;;;;;;9.38;7.90;;;;;;;17.58;60.83;94993.66;5069294;28;20036;-73
2023/06/29 06:29:03;;;;;;;9.50;8.30;;;;;;;17.76;60.53;94980.34;5072013;28;20033;-73
2023/06/29 06:31:29;;;;;;;8.95;7.82;;;;;;;17.92;60.94;94995.28;5035235;28;20497;-73
2023/06/29 06:33:57;;;;;;;9.38;7.47;;;;;;;17.96;60.70;94990.50;5062719;28;20032;-73
2023/06/29 06:36:24;;;;;;;8.25;6.93;;;;;;;18.19;58.17;94972.19;5069411;28;20032;-73
2023/06/29 06:38:49;;;;;;;8.82;7.30;;;;;;;18.39;58.22;94986.59;5050402;28;20063;-73
2023/06/29 06:41:15;;;;;;;7.68;6.85;;;;;;;18.45;60.65;94983.28;5070530;28;20028;-73
2023/06/29 06:43:40;;;;;;;8.23;7.25;;;;;;;18.69;59.85;94982.34;5071875;28;20507;-73
2023/06/29 06:46:06;;;;;;;8.10;7.30;;;;;;;18.63;59.01;94984.84;5070730;28;20490;-73
2023/06/29 06:48:31;;;;;;;9.38;6.78;;;;;;;18.72;58.05;94982.00;5070430;28;20043;-73
2023/06/29 06:50:56;;;;;;;8.27;7.05;;;;;;;18.53;56.82;94977.16;5053736;28;20033;-73
2023/06/29 06:53:22;;;;;;;8.35;6.95;;;;;;;18.59;57.23;94975.66;5053785;28;20025;-73
2023/06/29 06:55:47;;;;;;;10.35;6.75;;;;;;;18.91;56.74;94985.19;5053647;28;20410;-73
2023/06/29 06:58:13;;;;;;;8.23;6.78;;;;;;;18.84;55.97;94979.00;5069333;28;20025;-73
2023/06/29 07:00:38;;;;;;;9.32;6.47;;;;;;;18.82;55.26;94973.91;5071779;28;20215;-73
2023/06/29 07:03:04;;;;;;;8.27;6.70;;;;;;;18.59;56.48;94980.94;5053787;28;20020;-73
2023/06/29 07:05:29;;;;;;;7.15;6.40;;;;;;;18.92;55.17;94973.69;5071605;28;20111;-72
2023/06/29 07:07:55;;;;;;;7.10;6.05;;;;;;;19.01;55.60;94977.91;5070352;28;20410;-73
2023/06/29 07:10:20;;;;;;;7.70;6.72;;;;;;;18.96;55.28;94972.34;5070121;28;20051;-73
2023/06/29 07:12:46;;;;;;;8.82;6.60;;;;;;;18.89;54.54;94974.88;5036778;28;20028;-73
2023/06/29 07:15:12;;;;;;;6.32;5.72;;;;;;;19.32;52.23;94971.75;5070328;28;20395;-73
2023/06/29 07:17:37;;;;;;;6.57;4.97;;;;;;;19.40;52.39;94971.69;5037172;28;20044;-73
2023/06/29 07:20:04;;;;;;;7.78;6.38;;;;;;;19.29;53.24;94965.03;5069938;28;20036;-73
2023/06/29 07:22:29;;;;;;;8.20;6.30;;;;;;;19.48;54.43;94978.72;5070184;28;20063;-73
2023/06/29 07:24:57;;;;;;;6.20;5.60;;;;;;;19.76;51.59;94950.00;5070090;28;20105;-74
2023/06/29 07:27:22;;;;;;;6.43;5.70;;;;;;;19.97;52.27;94971.16;5071375;28;20027;-73
2023/06/29 07:29:48;;;;;;;6.55;5.72;;;;;;;19.98;53.52;94964.91;5053466;28;20100;-73
2023/06/29 07:32:13;;;;;;;6.63;5.50;;;;;;;20.05;51.28;94970.28;5071101;28;20044;-72
2023/06/29 07:34:39;;;;;;;6.53;5.15;;;;;;;19.94;50.99;94971.53;5069979;28;20494;-72
2023/06/29 07:37:05;;;;;;;7.50;5.40;;;;;;;20.26;52.50;94961.66;5069577;28;20078;-73
2023/06/29 07:39:30;;;;;;;5.60;4.85;;;;;;;20.14;52.17;94949.91;5053773;28;20035;-73
2023/06/29 07:41:56;;;;;;;6.00;4.65;;;;;;;20.32;50.74;94968.81;5069801;28;20406;-72
2023/06/29 07:44:21;;;;;;;6.03;4.70;;;;;;;20.07;50.88;94963.81;5053153;28;20032;-73
2023/06/29 07:46:46;;;;;;;5.57;3.88;;;;;;;20.53;50.28;94953.09;5069780;28;20021;-73
2023/06/29 07:49:12;;;;;;;7.05;4.10;;;;;;;20.48;49.88;94963.34;5070996;28;20467;-73
2023/06/29 07:51:37;;;;;;;6.05;4.15;;;;;;;20.14;50.00;94963.09;5052869;28;20024;-74
2023/06/29 07:54:04;;;;;;;5.13;3.38;;;;;;;20.11;47.90;94964.25;5069699;28;20032;-77
2023/06/29 07:56:30;;;;;;;4.35;2.88;;;;;;;20.58;47.82;94962.25;5053102;28;20040;-73
2023/06/29 07:58:56;;;;;;;3.30;2.90;;;;;;;20.59;52.45;94946.25;5053280;28;20028;-74
2023/06/29 08:01:21;;;;;;;5.85;3.80;;;;;;;19.95;48.96;94967.91;5070772;28;20032;-75
2023/06/29 08:03:47;;;;;;;5.88;3.83;;;;;;;20.03;50.31;94956.44;5071297;28;20029;-74
2023/06/29 08:06:12;;;;;;;4.45;4.05;;;;;;;20.18;50.34;94957.28;5052816;28;20448;-74
2023/06/29 08:08:38;;;;;;;4.82;4.03;;;;;;;20.03;49.52;94953.81;5069544;28;20480;-74
2023/06/29 08:11:03;;;;;;;4.13;3.47;;;;;;;19.99;48.39;94953.34;5069278;28;20032;-74
2023/06/29 08:13:29;;;;;;;4.57;3.50;;;;;;;20.25;49.35;94962.63;5069708;28;20037;-74
2023/06/29 08:15:54;;;;;;;3.70;3.17;;;;;;;20.45;48.22;94955.00;5038119;28;20036;-75
2023/06/29 08:18:19;;;;;;;4.18;3.60;;;;;;;20.79;48.47;94948.28;5032325;28;20055;-75
2023/06/29 08:20:48;;;;;;;4.50;3.10;;;;;;;20.90;51.32;94953.91;5049638;28;20033;-74
2023/06/29 08:23:14;;;;;;;5.22;3.20;;;;;;;21.11;48.95;94952.25;5033297;28;20052;-75
2023/06/29 08:25:39;;;;;;;3.67;3.05;;;;;;;20.59;45.62;94942.78;5034754;28;20407;-74
2023/06/29 08:28:05;;;;;;;5.43;2.83;;;;;;;20.64;45.74;94946.50;5036933;28;20024;-74
2023/06/29 08:30:30;;;;;;;4.07;3.28;;;;;;;20.83;47.02;94954.81;5053111;28;20098;-74
2023/06/29 08:32:55;;;;;;;3.60;3.03;;;;;;;20.58;47.33;94956.97;5036806;28;20487;-74
2023/06/29 08:35:21;;;;;;;4.05;2.92;;;;;;;20.69;47.99;94940.66;5036710;28;20040;-74
2023/06/29 08:37:47;;;;;;;4.55;3.60;;;;;;;20.68;46.75;94920.56;5053151;28;20458;-74
2023/06/29 08:40:12;;;;;;;4.30;3.65;;;;;;;20.95;47.71;94933.03;5054361;28;20051;-74
2023/06/29 08:42:38;;;;;;;5.57;3.65;;;;;;;20.79;46.45;94921.91;5036630;28;20032;-74
2023/06/29 08:45:05;;;;;;;5.90;3.60;;;;;;;20.71;45.96;94946.59;5036919;28;20112;-74
2023/06/29 08:47:31;;;;;;;5.78;3.35;;;;;;;20.53;47.48;94949.59;5053156;28;20033;-74
2023/06/29 08:49:57;;;;;;;5.57;3.35;;;;;;;20.66;47.19;94936.56;5036457;28;20025;-74
2023/06/29 08:52:25;;;;;;;5.45;4.00;;;;;;;20.42;47.71;94950.91;5036454;28;20025;-75
2023/06/29 08:54:51;;;;;;;5.25;3.42;;;;;;;20.93;47.91;94934.22;5036702;28;20033;-74
2023/06/29 08:57:16;;;;;;;3.80;3.40;;;;;;;20.96;48.43;94937.31;5036361;28;20040;-75
2023/06/29 08:59:42;;;;;;;4.68;3.65;;;;;;;20.75;46.67;94929.34;5036303;28;20037;-75
2023/06/29 09:02:07;;;;;;;4.60;3.95;;;;;;;20.36;47.12;94927.88;5036282;28;20487;-74
2023/06/29 09:04:32;;;;;;;5.53;3.65;;;;;;;20.60;46.59;94929.41;5036320;28;20457;-75
2023/06/29 09:06:58;;;;;;;6.00;3.08;;;;;;;20.51;46.89;94933.94;5052650;28;20028;-75
2023/06/29 09:09:24;;;;;;;4.65;3.10;;;;;;;20.68;45.74;94936.41;5052924;28;20487;-74
2023/06/29 09:11:49;;;;;;;3.90;2.72;;;;;;;20.70;44.89;94923.84;5035965;28;20411;-75
2023/06/29 09:14:15;;;;;;;6.22;2.28;;;;;;;20.55;43.77;94915.13;5036361;28;20037;-75
2023/06/29 09:16:50;;;;;;;5.00;2.97;;;;;;;20.83;47.44;94928.44;5052481;28;20028;-74
2023/06/29 09:19:17;;;;;;;5.45;3.67;;;;;;;21.20;46.68;94922.06;5052668;28;20159;-74
2023/06/29 09:21:45;;;;;;;4.63;3.22;;;;;;;21.29;46.69;94915.66;5035992;28;20509;-74
2023/06/29 09:24:10;;;;;;;4.15;3.00;;;;;;;21.25;46.02;94917.03;5052550;28;20033;-75
2023/06/29 09:26:36;;;;;;;4.32;3.50;;;;;;;21.11;47.01;94918.75;5035518;28;20090;-75
2023/06/29 09:29:03;;;;;;;7.20;3.13;;;;;;;20.87;45.95;94914.66;5035626;28;20435;-75
2023/06/29 09:31:32;;;;;;;5.72;3.25;;;;;;;20.55;45.65;94894.84;5035927;28;20037;-74
2023/06/29 09:34:20;;;;;;;5.63;2.75;;;;;;;20.92;45.84;94912.28;5036339;28;20088;-75
2023/06/29 09:36:45;;;;;;;3.53;2.97;;;;;;;21.31;46.12;94915.47;5053134;28;20052;-75
2023/06/29 09:39:14;;;;;;;4.45;3.20;;;;;;;21.31;46.49;94915.47;5035582;28;20502;-75
2023/06/29 09:41:53;;;;;;;4.57;3.40;;;;;;;21.31;46.92;94910.19;5035813;28;20029;-75
2023/06/29 09:44:19;;;;;;;3.97;3.20;;;;;;;21.35;47.84;94908.81;5052155;28;20031;-75
2023/06/29 09:46:46;;;;;;;3.65;3.22;;;;;;;21.26;45.87;94891.47;5035490;28;20078;-75
2023/06/29 09:49:12;;;;;;;4.55;2.92;;;;;;;21.44;45.91;94873.31;5035512;28;20072;-76
2023/06/29 09:51:38;;;;;;;3.40;2.70;;;;;;;22.00;44.74;94904.16;5035053;28;20029;-75
2023/06/29 09:54:04;;;;;;;3.33;2.50;;;;;;;22.27;41.62;94900.69;5053194;28;20114;-75
2023/06/29 09:56:35;;;;;;;3.95;2.17;;;;;;;22.28;42.11;94906.78;5035237;28;20063;-75
2023/06/29 09:59:01;;;;;;;3.35;2.30;;;;;;;22.39;42.57;94900.09;5035453;28;20029;-75
2023/06/29 10:01:28;;;;;;;5.38;2.40;;;;;;;22.09;43.21;94901.19;5035141;28;20032;-75
2023/06/29 10:03:54;;;;;;;4.30;2.65;;;;;;;21.70;41.44;94906.22;5053331;28;20120;-75
2023/06/29 10:06:21;;;;;;;3.25;2.40;;;;;;;21.52;41.57;94906.72;5051639;28;20107;-75
2023/06/29 10:08:50;;;;;;;3.20;2.70;;;;;;;21.45;42.56;94900.56;5035201;28;20055;-75
2023/06/29 10:11:16;;;;;;;4.10;2.47;;;;;;;21.61;44.52;94905.56;5018322;28;20037;-75
2023/06/29 10:13:45;;;;;;;3.92;2.70;;;;;;;22.05;44.02;94897.28;5018609;28;20025;-74
2023/06/29 10:16:10;;;;;;;2.80;2.45;;;;;;;22.07;41.18;94886.53;5019088;28;20041;-75
2023/06/29 10:18:38;;;;;;;3.60;2.55;;;;;;;22.24;44.20;94885.19;5035183;28;20091;-75
2023/06/29 10:21:03;;;;;;;3.58;2.58;;;;;;;21.87;42.44;94886.41;5034899;28;20033;-75
2023/06/29 10:23:29;;;;;;;3.67;2.20;;;;;;;21.75;42.00;94885.31;5051320;28;20033;-75
2023/06/29 10:25:54;;;;;;;3.05;2.25;;;;;;;21.75;41.92;94880.84;5051362;28;20033;-75
2023/06/29 10:28:20;;;;;;;3.60;2.55;;;;;;;21.78;42.39;94880.44;5034724;28;20562;-75
2023/06/29 10:30:47;;;;;;;3.35;2.35;;;;;;;21.78;43.18;94872.50;5051052;28;20044;-75
2023/06/29 10:33:14;;;;;;;2.95;2.30;;;;;;;22.13;43.41;94864.56;5051443;28;20063;-75
2023/06/29 10:35:40;;;;;;;5.13;2.45;;;;;;;21.97;43.34;94878.13;5034647;28;20091;-74
2023/06/29 10:38:12;;;;;;;2.90;2.20;;;;;;;21.72;41.13;94862.72;5051931;28;20045;-75
2023/06/29 10:40:47;;;;;;;3.90;2.08;;;;;;;21.94;40.91;94873.22;5034360;28;20029;-75
2023/06/29 10:43:13;;;;;;;3.60;2.28;;;;;;;21.82;40.69;94879.06;5051201;28;20070;-75
2023/06/29 10:45:39;;;;;;;4.50;2.10;;;;;;;21.68;42.22;94880.00;5052169;28;20029;-76
2023/06/29 10:48:05;;;;;;;2.70;2.25;;;;;;;21.83;42.95;94864.81;5050388;28;20029;-75
2023/06/29 10:50:32;;;;;;;2.42;1.77;;;;;;;21.85;43.21;94876.03;5017704;28;20033;-75
2023/06/29 10:53:01;;;;;;;4.97;2.33;;;;;;;22.05;42.09;94870.03;5034283;28;20048;-75
2023/06/29 10:55:28;;;;;;;3.53;2.30;;;;;;;22.12;42.56;94873.53;5034601;28;20105;-75
2023/06/29 10:57:58;;;;;;;3.75;2.05;;;;;;;21.89;42.50;94870.34;5034208;28;20037;-75
2023/06/29 11:00:25;;;;;;;3.50;2.20;;;;;;;21.61;41.15;94855.34;5017896;28;20553;-75
2023/06/29 11:02:51;;;;;;;3.28;1.80;;;;;;;21.70;40.88;94856.00;5050704;28;20085;-75
2023/06/29 11:05:17;;;;;;;3.40;1.95;;;;;;;21.80;40.56;94867.84;5034026;28;20033;-75
2023/06/29 11:07:48;;;;;;;3.80;2.20;;;;;;;21.71;40.51;94863.75;5050571;28;20029;-75
2023/06/29 11:10:13;;;;;;;4.88;2.30;;;;;;;21.75;43.10;94859.69;5050243;28;20032;-75
2023/06/29 11:12:39;;;;;;;2.50;1.90;;;;;;;22.20;42.03;94862.78;5050452;28;20048;-75
2023/06/29 11:15:11;;;;;;;2.75;1.90;;;;;;;21.97;40.11;94859.59;5050281;28;20029;-75
2023/06/29 11:17:36;;;;;;;5.13;2.38;;;;;;;21.84;41.76;94853.25;5050441;28;20527;-75
2023/06/29 11:20:02;;;;;;;2.70;2.03;;;;;;;21.72;42.53;94856.63;5033502;28;20037;-75
2023/06/29 11:22:27;;;;;;;3.10;1.98;;;;;;;22.02;42.39;94855.38;5050315;28;20435;-75
2023/06/29 11:24:53;;;;;;;3.22;1.90;;;;;;;21.88;40.29;94847.56;5051388;28;20098;-75
2023/06/29 11:27:18;;;;;;;2.40;1.85;;;;;;;21.58;38.84;94853.91;5033762;28;20477;-75
2023/06/29 11:29:44;;;;;;;3.45;1.95;;;;;;;21.76;39.93;94849.97;5050404;28;20036;-75